createdAt,value
2022-09-22T00:01:38.448Z,12.50
2022-09-22T00:04:09.176Z,12.50
2022-09-22T00:06:43.603Z,12.30
2022-09-22T00:09:16.955Z,12.40
2022-09-22T00:11:47.568Z,12.40
2022-09-22T00:14:20.215Z,12.30
2022-09-22T00:16:50.934Z,12.20
2022-09-22T00:19:23.314Z,12.30
2022-09-22T00:21:53.729Z,12.30
2022-09-22T00:24:23.875Z,12.10
2022-09-22T00:26:56.638Z,12.30
2022-09-22T00:29:25.868Z,12.00
2022-09-22T00:31:54.950Z,12.10
2022-09-22T00:34:26.259Z,12.00
2022-09-22T00:36:56.903Z,11.90
2022-09-22T00:39:25.205Z,11.80
2022-09-22T00:41:54.571Z,11.80
2022-09-22T00:44:44.784Z,11.70
2022-09-22T00:47:26.137Z,11.70
2022-09-22T00:49:59.822Z,11.80
2022-09-22T00:52:34.836Z,11.80
2022-09-22T00:55:08.422Z,11.80
2022-09-22T00:57:39.302Z,11.80
2022-09-22T01:00:11.112Z,11.80
2022-09-22T01:02:40.636Z,11.70
2022-09-22T01:05:10.546Z,11.80
2022-09-22T01:07:40.378Z,11.70
2022-09-22T01:10:10.036Z,11.60
2022-09-22T01:12:42.511Z,11.70
2022-09-22T01:15:25.688Z,11.70
2022-09-22T01:18:12.821Z,11.70
2022-09-22T01:21:21.260Z,11.70
2022-09-22T01:24:48.797Z,11.60
2022-09-22T01:28:09.108Z,11.60
2022-09-22T01:30:43.645Z,11.40
2022-09-22T01:33:30.242Z,11.40
2022-09-22T01:36:15.011Z,11.50
2022-09-22T01:38:57.170Z,11.50
2022-09-22T01:41:51.762Z,11.40
2022-09-22T01:44:27.804Z,11.50
2022-09-22T01:47:02.508Z,11.40
2022-09-22T01:49:35.371Z,11.30
2022-09-22T01:52:11.233Z,11.30
2022-09-22T01:54:43.623Z,11.30
2022-09-22T01:57:17.847Z,11.20
2022-09-22T01:59:52.625Z,11.20
2022-09-22T02:02:28.552Z,11.20
2022-09-22T02:05:01.633Z,11.00
2022-09-22T02:07:35.539Z,10.80
2022-09-22T02:10:11.254Z,10.80
2022-09-22T02:12:40.671Z,10.80
2022-09-22T02:15:31.270Z,10.70
2022-09-22T02:18:07.802Z,10.70
2022-09-22T02:20:36.851Z,10.80
2022-09-22T02:23:05.381Z,10.80
2022-09-22T02:25:34.379Z,10.80
2022-09-22T02:28:03.761Z,10.70
2022-09-22T02:30:32.877Z,10.90
2022-09-22T02:33:03.132Z,10.80
2022-09-22T02:35:37.074Z,10.90
2022-09-22T02:38:12.107Z,10.80
2022-09-22T02:40:48.725Z,11.00
2022-09-22T02:43:25.690Z,10.80
2022-09-22T02:46:01.403Z,10.80
2022-09-22T02:48:38.196Z,10.90
2022-09-22T02:51:07.227Z,11.00
2022-09-22T02:53:37.417Z,10.90
2022-09-22T02:56:06.185Z,11.00
2022-09-22T02:58:34.567Z,11.00
2022-09-22T03:01:03.220Z,10.90
2022-09-22T03:03:33.603Z,10.80
2022-09-22T03:06:02.001Z,10.70
2022-09-22T03:08:30.366Z,10.80
2022-09-22T03:10:58.786Z,10.80
2022-09-22T03:13:27.205Z,10.70
2022-09-22T03:15:55.739Z,10.70
2022-09-22T03:18:24.133Z,10.70
2022-09-22T03:20:54.016Z,10.70
2022-09-22T03:23:22.378Z,10.80
2022-09-22T03:25:50.983Z,10.80
2022-09-22T03:28:19.423Z,10.50
2022-09-22T03:30:48.083Z,10.60
2022-09-22T03:33:16.642Z,10.70
2022-09-22T03:35:45.197Z,10.50
2022-09-22T03:38:15.199Z,10.60
2022-09-22T03:40:50.920Z,10.60
2022-09-22T03:43:19.559Z,10.60
2022-09-22T03:45:48.547Z,10.50
2022-09-22T03:48:17.053Z,10.50
2022-09-22T03:50:45.582Z,10.50
2022-09-22T03:53:15.623Z,10.50
2022-09-22T03:55:44.023Z,10.40
2022-09-22T03:58:12.439Z,10.50
2022-09-22T04:00:40.877Z,10.50
2022-09-22T04:03:09.370Z,10.30
2022-09-22T04:05:37.773Z,10.50
2022-09-22T04:08:06.400Z,10.50
2022-09-22T04:10:37.087Z,10.40
2022-09-22T04:13:05.454Z,10.50
2022-09-22T04:15:33.925Z,10.50
2022-09-22T04:18:02.558Z,10.50
2022-09-22T04:20:31.223Z,10.50
2022-09-22T04:22:59.739Z,10.50
2022-09-22T04:25:28.333Z,10.30
2022-09-22T04:28:01.185Z,10.50
2022-09-22T04:30:32.298Z,10.50
2022-09-22T04:33:01.093Z,10.40
2022-09-22T04:35:30.582Z,10.50
2022-09-22T04:37:59.702Z,10.50
2022-09-22T04:40:28.504Z,10.30
2022-09-22T04:42:58.972Z,10.40
2022-09-22T04:45:27.932Z,10.60
2022-09-22T04:47:56.359Z,10.60
2022-09-22T04:50:25.091Z,10.40
2022-09-22T04:52:56.074Z,10.50
2022-09-22T04:55:26.141Z,10.40
2022-09-22T04:57:57.821Z,10.40
2022-09-22T05:00:30.407Z,10.30
2022-09-22T05:02:59.268Z,10.20
2022-09-22T05:05:27.907Z,10.20
2022-09-22T05:07:56.571Z,10.30
2022-09-22T05:10:26.804Z,10.30
2022-09-22T05:12:55.254Z,10.30
2022-09-22T05:15:25.391Z,10.30
2022-09-22T05:17:56.402Z,10.30
2022-09-22T05:20:24.880Z,10.20
2022-09-22T05:22:55.104Z,10.20
2022-09-22T05:25:23.747Z,10.10
2022-09-22T05:27:54.831Z,10.10
2022-09-22T05:30:27.417Z,10.10
2022-09-22T05:32:56.069Z,9.70
2022-09-22T05:35:26.492Z,10.00
2022-09-22T05:37:55.544Z,10.00
2022-09-22T05:40:26.374Z,10.00
2022-09-22T05:42:55.879Z,9.90
2022-09-22T05:45:25.925Z,9.90
2022-09-22T05:47:54.657Z,9.90
2022-09-22T05:50:23.971Z,9.90
2022-09-22T05:52:52.686Z,9.70
2022-09-22T05:55:21.301Z,9.90
2022-09-22T05:57:49.935Z,10.00
2022-09-22T06:00:18.808Z,10.10
2022-09-22T06:02:48.883Z,10.10
2022-09-22T06:05:19.402Z,10.30
2022-09-22T06:07:49.256Z,10.30
2022-09-22T06:10:17.856Z,10.30
2022-09-22T06:12:46.749Z,10.40
2022-09-22T06:15:15.259Z,10.30
2022-09-22T06:17:43.823Z,10.60
2022-09-22T06:20:13.789Z,10.50
2022-09-22T06:22:42.543Z,10.70
2022-09-22T06:25:11.350Z,10.60
2022-09-22T06:27:40.121Z,10.70
2022-09-22T06:30:11.237Z,11.00
2022-09-22T06:32:40.370Z,10.90
2022-09-22T06:35:09.558Z,11.10
2022-09-22T06:37:40.371Z,11.10
2022-09-22T06:40:12.961Z,11.20
2022-09-22T06:42:45.232Z,11.10
2022-09-22T06:45:16.161Z,11.30
2022-09-22T06:47:44.676Z,11.30
2022-09-22T06:50:13.132Z,11.60
2022-09-22T06:52:43.489Z,11.60
2022-09-22T06:55:19.489Z,11.80
2022-09-22T06:57:48.296Z,12.00
2022-09-22T07:00:18.027Z,12.10
2022-09-22T07:02:47.105Z,12.30
2022-09-22T07:05:18.804Z,12.50
2022-09-22T07:07:48.971Z,12.40
2022-09-22T07:10:17.697Z,12.60
2022-09-22T07:12:47.187Z,13.00
2022-09-22T07:15:16.047Z,13.20
2022-09-22T07:17:44.809Z,13.30
2022-09-22T07:20:14.224Z,13.50
2022-09-22T07:22:42.999Z,13.80
2022-09-22T07:25:13.338Z,14.10
2022-09-22T07:27:41.924Z,14.20
2022-09-22T07:30:14.307Z,14.50
2022-09-22T07:32:42.918Z,14.90
2022-09-22T07:35:11.565Z,15.20
2022-09-22T07:37:40.794Z,15.50
2022-09-22T07:40:10.459Z,15.70
2022-09-22T07:42:40.309Z,16.00
2022-09-22T07:45:16.516Z,16.20
2022-09-22T07:48:03.499Z,16.50
2022-09-22T07:50:32.486Z,16.80
2022-09-22T07:53:01.380Z,16.90
2022-09-22T07:55:30.162Z,17.20
2022-09-22T07:58:04.544Z,17.50
2022-09-22T08:00:36.546Z,17.70
2022-09-22T08:03:05.145Z,18.00
2022-09-22T08:05:33.791Z,18.20
2022-09-22T08:08:04.096Z,18.50
2022-09-22T08:10:35.558Z,18.70
2022-09-22T08:13:05.422Z,18.80
2022-09-22T08:15:33.942Z,19.10
2022-09-22T08:18:04.116Z,19.30
2022-09-22T08:20:33.236Z,19.50
2022-09-22T08:23:05.643Z,19.70
2022-09-22T08:25:34.365Z,19.90
2022-09-22T08:28:05.031Z,20.10
2022-09-22T08:30:35.255Z,20.30
2022-09-22T08:33:04.330Z,20.40
2022-09-22T08:35:34.547Z,20.70
2022-09-22T08:38:03.653Z,20.90
2022-09-22T08:40:32.959Z,21.10
2022-09-22T08:43:04.490Z,21.20
2022-09-22T08:45:40.746Z,21.40
2022-09-22T08:48:37.535Z,21.60
2022-09-22T08:51:30.086Z,21.80
2022-09-22T08:54:03.230Z,22.00
2022-09-22T08:56:39.622Z,21.90
2022-09-22T08:59:14.037Z,22.20
2022-09-22T09:02:07.635Z,22.40
2022-09-22T09:05:16.482Z,22.60
2022-09-22T09:07:58.169Z,22.70
2022-09-22T09:10:47.166Z,22.90
2022-09-22T09:13:37.707Z,23.10
2022-09-22T09:16:35.627Z,23.20
2022-09-22T09:19:19.102Z,23.30
2022-09-22T09:21:55.199Z,23.50
2022-09-22T09:27:25.568Z,23.90
2022-09-22T09:30:03.377Z,24.00
2022-09-22T09:32:43.784Z,24.10
2022-09-22T09:35:17.838Z,24.30
2022-09-22T09:37:47.733Z,24.40
2022-09-22T09:40:19.929Z,24.50
2022-09-22T09:42:54.844Z,24.50
2022-09-22T09:45:31.959Z,24.70
2022-09-22T09:48:21.052Z,24.70
2022-09-22T09:50:50.986Z,24.80
2022-09-22T09:53:33.491Z,24.90
2022-09-22T09:56:02.822Z,25.00
2022-09-22T09:58:47.674Z,25.10
2022-09-22T10:01:16.508Z,25.20
2022-09-22T10:03:51.929Z,25.20
2022-09-22T10:06:27.695Z,25.30
2022-09-22T10:08:56.383Z,25.30
2022-09-22T10:11:33.037Z,25.30
2022-09-22T10:14:02.105Z,25.30
2022-09-22T10:16:33.461Z,25.40
2022-09-22T10:19:21.785Z,25.30
2022-09-22T10:21:51.483Z,25.40
2022-09-22T10:24:33.026Z,25.50
2022-09-22T10:27:05.240Z,25.60
2022-09-22T10:29:36.767Z,25.60
2022-09-22T10:32:14.970Z,25.70
2022-09-22T10:37:18.762Z,25.90
2022-09-22T10:39:50.589Z,26.00
2022-09-22T10:42:34.915Z,26.00
2022-09-22T10:45:08.144Z,26.10
2022-09-22T10:47:59.014Z,26.10
2022-09-22T10:50:56.407Z,26.00
2022-09-22T10:54:07.198Z,26.10
2022-09-22T10:56:40.800Z,26.20
2022-09-22T10:59:44.167Z,26.20
2022-09-22T11:03:11.650Z,26.30
2022-09-22T11:06:05.593Z,26.50
2022-09-22T11:09:02.959Z,26.50
2022-09-22T11:11:57.958Z,26.50
2022-09-22T11:14:42.774Z,26.60
2022-09-22T11:17:28.782Z,26.60
2022-09-22T11:20:23.102Z,26.60
2022-09-22T11:23:15.276Z,26.70
2022-09-22T11:26:05.343Z,26.70
2022-09-22T11:28:54.888Z,26.60
2022-09-22T11:31:42.619Z,26.40
2022-09-22T11:34:50.812Z,26.20
2022-09-22T11:37:36.196Z,26.10
2022-09-22T11:40:34.085Z,26.00
2022-09-22T11:43:27.900Z,26.00
2022-09-22T11:46:05.305Z,26.00
2022-09-22T11:48:49.420Z,25.90
2022-09-22T11:51:44.271Z,25.80
2022-09-22T11:54:35.606Z,25.70
2022-09-22T11:57:08.634Z,25.60
2022-09-22T11:59:44.484Z,25.40
2022-09-22T12:02:27.118Z,25.30
2022-09-22T12:04:59.542Z,25.30
2022-09-22T12:07:32.693Z,25.40
2022-09-22T12:10:05.920Z,25.50
2022-09-22T12:12:35.669Z,25.50
2022-09-22T12:15:19.537Z,25.40
2022-09-22T12:17:54.611Z,25.40
2022-09-22T12:20:37.874Z,25.40
2022-09-22T12:23:38.938Z,25.40
2022-09-22T12:26:10.600Z,25.30
2022-09-22T12:28:42.978Z,25.30
2022-09-22T12:31:15.635Z,25.10
2022-09-22T12:33:50.388Z,24.90
2022-09-22T12:36:29.802Z,24.90
2022-09-22T12:39:17.816Z,24.70
2022-09-22T12:41:49.403Z,24.60
2022-09-22T12:44:22.765Z,24.40
2022-09-22T12:46:57.391Z,24.40
2022-09-22T12:49:26.220Z,24.40
2022-09-22T12:51:54.481Z,24.50
2022-09-22T12:54:38.863Z,24.50
2022-09-22T12:57:29.094Z,24.30
2022-09-22T13:00:23.123Z,24.20
2022-09-22T13:02:52.888Z,24.30
2022-09-22T13:05:46.574Z,24.30
2022-09-22T13:08:24.526Z,24.40
2022-09-22T13:11:01.509Z,24.40
2022-09-22T13:13:45.042Z,24.50
2022-09-22T13:16:37.150Z,24.40
2022-09-22T13:19:11.508Z,24.60
2022-09-22T13:21:40.239Z,24.70
2022-09-22T13:24:27.314Z,24.70
2022-09-22T13:27:05.857Z,24.80
2022-09-22T13:29:35.003Z,24.80
2022-09-22T13:32:18.659Z,24.60
2022-09-22T13:34:49.250Z,24.60
2022-09-22T13:37:22.231Z,24.60
2022-09-22T13:39:53.626Z,24.60
2022-09-22T13:42:25.587Z,24.60
2022-09-22T13:45:57.872Z,24.60
2022-09-22T13:48:28.631Z,24.70
2022-09-22T13:51:03.905Z,24.80
2022-09-22T13:53:33.392Z,24.80
2022-09-22T13:56:03.013Z,24.90
2022-09-22T13:58:37.588Z,24.90
2022-09-22T14:01:16.260Z,25.00
2022-09-22T14:03:48.308Z,25.00
2022-09-22T14:06:22.125Z,25.00
2022-09-22T14:08:52.197Z,25.00
2022-09-22T14:11:24.544Z,25.00
2022-09-22T14:14:01.330Z,24.90
2022-09-22T14:16:34.233Z,24.80
2022-09-22T14:19:09.395Z,24.70
2022-09-22T14:21:50.666Z,24.40
2022-09-22T14:24:19.706Z,24.40
2022-09-22T14:26:50.681Z,24.30
2022-09-22T14:29:25.420Z,24.20
2022-09-22T14:32:00.362Z,24.20
2022-09-22T14:34:32.233Z,24.10
2022-09-22T14:37:16.817Z,24.00
2022-09-22T14:39:46.497Z,23.90
2022-09-22T14:42:22.877Z,23.70
2022-09-22T14:44:53.745Z,23.60
2022-09-22T14:47:26.778Z,23.40
2022-09-22T14:50:17.271Z,23.40
2022-09-22T14:52:55.969Z,23.30
2022-09-22T14:55:37.152Z,23.10
2022-09-22T14:58:09.073Z,23.10
2022-09-22T15:00:55.515Z,23.10
2022-09-22T15:03:29.531Z,23.00
2022-09-22T15:06:08.965Z,22.90
2022-09-22T15:08:39.129Z,22.90
2022-09-22T15:11:07.673Z,22.90
2022-09-22T15:13:42.675Z,22.80
2022-09-22T15:16:40.243Z,22.80
2022-09-22T15:19:13.177Z,22.80
2022-09-22T15:21:47.833Z,22.70
2022-09-22T15:24:26.151Z,22.70
2022-09-22T15:27:00.204Z,22.70
2022-09-22T15:29:32.339Z,22.60
2022-09-22T15:32:04.223Z,22.50
2022-09-22T15:34:32.494Z,22.50
2022-09-22T15:37:00.677Z,22.50
2022-09-22T15:39:31.655Z,22.40
2022-09-22T15:42:00.450Z,22.30
2022-09-22T15:44:28.845Z,22.30
2022-09-22T15:47:01.441Z,22.10
2022-09-22T15:49:33.429Z,22.20
2022-09-22T15:52:04.741Z,22.10
2022-09-22T15:54:34.768Z,22.20
2022-09-22T15:57:04.422Z,22.10
2022-09-22T15:59:35.365Z,22.10
2022-09-22T16:02:03.724Z,22.10
2022-09-22T16:04:34.263Z,22.10
2022-09-22T16:07:06.231Z,22.10
2022-09-22T16:09:36.814Z,22.00
2022-09-22T16:12:08.597Z,22.10
2022-09-22T16:14:39.493Z,22.10
2022-09-22T16:17:08.370Z,22.10
2022-09-22T16:19:36.708Z,22.10
2022-09-22T16:22:05.866Z,22.10
2022-09-22T16:24:35.532Z,22.10
2022-09-22T16:27:07.504Z,22.00
2022-09-22T16:29:37.448Z,22.00
2022-09-22T16:32:05.983Z,22.00
2022-09-22T16:34:34.899Z,21.90
2022-09-22T16:37:03.455Z,21.90
2022-09-22T16:39:31.640Z,21.80
2022-09-22T16:42:01.360Z,21.70
2022-09-22T16:44:29.594Z,21.70
2022-09-22T16:46:58.401Z,21.60
2022-09-22T16:49:26.789Z,21.40
2022-09-22T16:51:55.611Z,21.40
2022-09-22T16:54:24.778Z,21.30
2022-09-22T16:56:54.298Z,21.10
2022-09-22T16:59:24.860Z,21.00
2022-09-22T17:01:53.254Z,21.00
2022-09-22T17:04:21.977Z,20.90
2022-09-22T17:06:51.072Z,20.80
2022-09-22T17:09:19.559Z,20.80
2022-09-22T17:11:49.413Z,20.70
2022-09-22T17:14:21.635Z,20.60
2022-09-22T17:16:53.479Z,20.60
2022-09-22T17:19:24.069Z,20.50
2022-09-22T17:21:55.559Z,20.40
2022-09-22T17:24:25.491Z,20.40
2022-09-22T17:26:56.454Z,20.30
2022-09-22T17:29:27.006Z,20.30
2022-09-22T17:31:59.397Z,20.20
2022-09-22T17:34:29.485Z,20.30
2022-09-22T17:36:58.983Z,20.30
2022-09-22T17:39:29.648Z,20.20
2022-09-22T17:41:57.944Z,20.20
2022-09-22T17:44:30.895Z,20.10
2022-09-22T17:47:18.332Z,20.00
2022-09-22T17:50:15.667Z,19.80
2022-09-22T17:53:01.630Z,19.90
2022-09-22T17:55:30.233Z,19.80
2022-09-22T17:57:58.635Z,19.70
2022-09-22T18:00:27.133Z,19.60
2022-09-22T18:02:57.064Z,19.50
2022-09-22T18:05:27.165Z,19.40
2022-09-22T18:07:57.807Z,19.40
2022-09-22T18:10:34.038Z,19.40
2022-09-22T18:13:04.362Z,19.30
2022-09-22T18:15:32.700Z,19.30
2022-09-22T18:18:02.259Z,19.20
2022-09-22T18:20:32.009Z,19.20
2022-09-22T18:23:00.306Z,19.20
2022-09-22T18:25:28.994Z,19.10
2022-09-22T18:27:57.837Z,19.10
2022-09-22T18:30:28.382Z,19.00
2022-09-22T18:32:57.012Z,18.90
2022-09-22T18:35:27.940Z,18.90
2022-09-22T18:37:56.474Z,18.80
2022-09-22T18:40:24.834Z,18.70
2022-09-22T18:42:54.344Z,18.70
2022-09-22T18:45:23.266Z,18.60
2022-09-22T18:47:52.064Z,18.60
2022-09-22T18:50:20.758Z,18.50
2022-09-22T18:52:56.703Z,18.50
2022-09-22T18:55:25.017Z,18.40
2022-09-22T18:57:54.339Z,18.30
2022-09-22T19:00:23.148Z,18.30
2022-09-22T19:02:52.492Z,18.20
2022-09-22T19:05:21.209Z,18.20
2022-09-22T19:07:50.825Z,18.20
2022-09-22T19:10:22.119Z,18.10
2022-09-22T19:12:50.966Z,18.10
2022-09-22T19:15:20.335Z,18.00
2022-09-22T19:17:50.605Z,18.00
2022-09-22T19:20:22.497Z,17.90
2022-09-22T19:22:55.733Z,17.90
2022-09-22T19:25:24.248Z,17.90
2022-09-22T19:27:54.305Z,17.80
2022-09-22T19:30:24.876Z,17.80
2022-09-22T19:32:55.212Z,17.70
2022-09-22T19:35:23.828Z,17.70
2022-09-22T19:37:53.807Z,17.70
2022-09-22T19:40:25.042Z,17.60
2022-09-22T19:42:54.019Z,17.60
2022-09-22T19:45:23.813Z,17.60
2022-09-22T19:47:52.806Z,17.60
2022-09-22T19:50:21.171Z,17.50
2022-09-22T19:52:50.027Z,17.40
2022-09-22T19:55:21.207Z,17.40
2022-09-22T19:57:49.943Z,17.40
2022-09-22T20:00:25.805Z,17.20
2022-09-22T20:02:59.009Z,17.30
2022-09-22T20:05:30.630Z,17.30
2022-09-22T20:07:59.151Z,17.20
2022-09-22T20:10:29.031Z,17.20
2022-09-22T20:12:57.661Z,17.20
2022-09-22T20:15:27.234Z,17.10
2022-09-22T20:17:55.560Z,17.10
2022-09-22T20:20:26.145Z,17.10
2022-09-22T20:23:00.087Z,17.00
2022-09-22T20:25:32.753Z,17.00
2022-09-22T20:28:01.237Z,16.90
2022-09-22T20:30:29.725Z,16.80
2022-09-22T20:32:58.360Z,16.90
2022-09-22T20:35:37.495Z,16.80
2022-09-22T20:38:05.929Z,16.80
2022-09-22T20:40:36.009Z,16.70
2022-09-22T20:43:05.109Z,16.80
2022-09-22T20:45:33.732Z,16.70
2022-09-22T20:48:02.432Z,16.70
2022-09-22T20:50:31.184Z,16.60
2022-09-22T20:52:59.708Z,16.60
2022-09-22T20:55:28.172Z,16.50
2022-09-22T20:57:58.033Z,16.40
2022-09-22T21:00:26.575Z,16.40
2022-09-22T21:02:54.946Z,16.30
2022-09-22T21:05:23.328Z,16.30
2022-09-22T21:08:12.637Z,16.30
2022-09-22T21:10:39.995Z,16.30
2022-09-22T21:13:09.868Z,16.30
2022-09-22T21:15:38.576Z,16.30
2022-09-22T21:18:07.065Z,16.20
2022-09-22T21:20:35.434Z,16.20
2022-09-22T21:23:03.777Z,16.20
2022-09-22T21:25:32.253Z,16.10
2022-09-22T21:28:00.599Z,16.10
2022-09-22T21:30:30.470Z,16.00
2022-09-22T21:32:58.853Z,16.00
2022-09-22T21:35:27.254Z,16.10
2022-09-22T21:37:57.105Z,15.90
2022-09-22T21:40:25.541Z,16.00
2022-09-22T21:42:54.310Z,15.90
2022-09-22T21:45:22.677Z,16.00
2022-09-22T21:47:52.998Z,15.80
2022-09-22T21:50:23.039Z,15.90
2022-09-22T21:52:51.285Z,15.90
2022-09-22T21:55:20.345Z,15.90
2022-09-22T21:57:48.520Z,15.90
2022-09-22T22:00:21.968Z,15.80
2022-09-22T22:03:29.944Z,15.80
2022-09-22T22:06:02.825Z,15.80
2022-09-22T22:08:36.340Z,15.80
2022-09-22T22:11:08.486Z,15.80
2022-09-22T22:13:39.167Z,15.80
2022-09-22T22:16:09.547Z,15.80
2022-09-22T22:18:40.272Z,15.80
2022-09-22T22:21:11.031Z,15.80
2022-09-22T22:23:42.783Z,15.80
2022-09-22T22:26:14.265Z,15.80
2022-09-22T22:28:43.687Z,15.70
2022-09-22T22:31:14.359Z,15.70
2022-09-22T22:33:45.686Z,15.60
2022-09-22T22:36:16.460Z,15.70
2022-09-22T22:38:46.406Z,15.70
2022-09-22T22:41:16.723Z,15.60
2022-09-22T22:43:47.867Z,15.60
2022-09-22T22:46:16.722Z,15.60
2022-09-22T22:48:46.686Z,15.60
2022-09-22T22:51:17.423Z,15.40
2022-09-22T22:53:46.116Z,15.60
2022-09-22T22:56:16.859Z,15.50
2022-09-22T22:58:47.047Z,15.40
2022-09-22T23:01:18.182Z,15.40
2022-09-22T23:03:50.912Z,15.30
2022-09-22T23:06:22.318Z,15.30
2022-09-22T23:08:51.332Z,15.30
2022-09-22T23:11:23.168Z,15.20
2022-09-22T23:13:54.375Z,15.20
2022-09-22T23:16:25.766Z,15.20
2022-09-22T23:18:59.154Z,15.20
2022-09-22T23:21:27.462Z,15.20
2022-09-22T23:23:56.010Z,15.20
2022-09-22T23:26:25.042Z,15.20
2022-09-22T23:28:53.912Z,15.20
2022-09-22T23:31:22.750Z,15.20
2022-09-22T23:33:54.186Z,15.00
2022-09-22T23:36:25.529Z,15.10
2022-09-22T23:38:55.275Z,15.00
2022-09-22T23:41:24.469Z,15.10
2022-09-22T23:43:52.778Z,15.10
2022-09-22T23:46:21.203Z,15.10
2022-09-22T23:48:49.573Z,15.10
2022-09-22T23:51:19.562Z,15.10
2022-09-22T23:53:47.940Z,15.00
2022-09-22T23:56:16.517Z,15.10
2022-09-22T23:58:45.419Z,15.10
